createdAt,value
2018-09-15T00:05:32.384Z,23.52
2018-09-15T00:15:35.614Z,23.50
2018-09-15T00:25:39.123Z,23.43
2018-09-15T00:35:42.271Z,23.41
2018-09-15T00:45:45.684Z,23.43
2018-09-15T00:55:48.981Z,23.46
2018-09-15T01:05:52.134Z,23.45
2018-09-15T01:15:55.233Z,23.46
2018-09-15T01:25:58.683Z,23.43
2018-09-15T01:36:01.911Z,23.41
2018-09-15T01:46:05.193Z,23.40
2018-09-15T01:56:08.553Z,23.42
2018-09-15T02:06:11.799Z,23.40
2018-09-15T02:16:15.257Z,23.38
2018-09-15T02:26:18.475Z,23.35
2018-09-15T02:36:21.532Z,23.36
2018-09-15T02:46:24.837Z,23.34
2018-09-15T02:56:28.184Z,23.31
2018-09-15T03:06:31.400Z,23.28
2018-09-15T03:16:34.493Z,23.27
2018-09-15T03:26:37.641Z,23.27
2018-09-15T03:36:40.739Z,23.25
2018-09-15T03:46:43.925Z,23.23
2018-09-15T03:56:47.110Z,23.24
2018-09-15T04:06:50.496Z,23.19
2018-09-15T04:16:53.477Z,23.23
2018-09-15T04:26:56.637Z,23.22
2018-09-15T04:36:59.725Z,23.20
2018-09-15T04:47:02.724Z,23.19
2018-09-15T04:57:05.792Z,23.17
2018-09-15T05:07:08.923Z,23.16
2018-09-15T05:17:11.921Z,23.17
2018-09-15T05:27:15.092Z,23.17
2018-09-15T05:37:18.221Z,23.13
2018-09-15T05:47:21.339Z,23.18
2018-09-15T05:57:24.487Z,23.19
2018-09-15T06:07:27.727Z,23.17
2018-09-15T06:17:30.784Z,23.15
2018-09-15T06:27:33.883Z,23.15
2018-09-15T06:37:37.172Z,23.32
2018-09-15T06:47:40.219Z,23.10
2018-09-15T06:57:43.485Z,22.87
2018-09-15T07:07:46.429Z,22.88
2018-09-15T07:17:49.750Z,22.73
2018-09-15T07:27:52.973Z,22.79
2018-09-15T07:37:56.050Z,22.89
2018-09-15T07:47:59.207Z,22.93
2018-09-15T07:58:02.455Z,23.26
2018-09-15T08:08:05.653Z,23.32
2018-09-15T08:18:08.709Z,23.43
2018-09-15T08:28:11.805Z,23.42
2018-09-15T08:38:14.964Z,23.63
2018-09-15T08:48:18.251Z,23.80
2018-09-15T08:58:21.486Z,23.75
2018-09-15T09:08:24.569Z,23.82
2018-09-15T09:18:27.917Z,24.17
2018-09-15T09:28:31.073Z,24.21
2018-09-15T09:38:34.139Z,24.32
2018-09-15T09:48:37.700Z,24.24
2018-09-15T09:58:40.812Z,24.19
2018-09-15T10:08:44.043Z,24.30
2018-09-15T10:18:47.256Z,24.25
2018-09-15T10:28:50.484Z,24.49
2018-09-15T10:38:53.823Z,24.21
2018-09-15T10:48:56.925Z,24.48
2018-09-15T10:59:00.104Z,24.27
2018-09-15T11:09:04.492Z,24.19
2018-09-15T11:19:07.512Z,24.28
2018-09-15T11:29:10.466Z,24.35
2018-09-15T11:39:13.561Z,24.80
2018-09-15T11:49:16.537Z,25.04
2018-09-15T11:59:19.471Z,25.23
2018-09-15T12:09:22.443Z,25.25
2018-09-15T12:19:25.390Z,25.26
2018-09-15T12:29:29.120Z,24.72
2018-09-15T12:39:32.143Z,24.76
2018-09-15T12:49:38.048Z,24.30
2018-09-15T12:59:41.027Z,24.26
2018-09-15T13:09:44.113Z,23.87
2018-09-15T13:19:47.086Z,24.20
2018-09-15T13:29:50.376Z,24.34
2018-09-15T13:39:53.127Z,24.59
2018-09-15T13:49:56.097Z,24.36
2018-09-15T13:59:59.213Z,24.09
2018-09-15T14:10:07.046Z,24.28
2018-09-15T14:20:05.549Z,24.46
2018-09-15T14:30:08.595Z,24.46
2018-09-15T14:40:11.570Z,24.57
2018-09-15T14:50:14.570Z,24.51
2018-09-15T15:00:17.448Z,24.63
2018-09-15T15:10:20.931Z,24.76
2018-09-15T15:20:23.895Z,24.95
2018-09-15T15:30:26.833Z,24.78
2018-09-15T15:40:29.773Z,24.75
2018-09-15T15:50:32.793Z,24.64
2018-09-15T16:00:35.848Z,24.44
2018-09-15T16:10:38.781Z,24.60
2018-09-15T16:20:41.737Z,24.37
2018-09-15T16:30:44.931Z,24.50
2018-09-15T16:40:47.905Z,24.09
2018-09-15T16:50:50.942Z,24.11
2018-09-15T17:00:53.885Z,23.92
2018-09-15T17:10:56.815Z,23.68
2018-09-15T17:20:59.808Z,23.38
2018-09-15T17:31:03.026Z,23.23
2018-09-15T17:41:05.996Z,23.02
2018-09-15T17:51:08.975Z,22.74
2018-09-15T18:01:12.129Z,22.35
2018-09-15T18:11:15.209Z,22.27
2018-09-15T18:21:18.178Z,22.19
2018-09-15T18:31:21.116Z,21.87
2018-09-15T18:41:24.046Z,21.87
2018-09-15T18:51:27.004Z,21.58
2018-09-15T19:01:30.126Z,21.47
2018-09-15T19:11:33.253Z,21.41
2018-09-15T19:21:36.193Z,21.22
2018-09-15T19:31:39.153Z,21.06
2018-09-15T19:41:42.259Z,21.16
2018-09-15T19:51:45.201Z,20.94
2018-09-15T20:01:48.126Z,20.78
2018-09-15T20:11:51.103Z,20.84
2018-09-15T20:21:53.334Z,20.84
2018-09-15T20:31:56.353Z,21.01
2018-09-15T20:41:59.453Z,20.73
2018-09-15T20:52:02.395Z,20.49
2018-09-15T21:02:05.336Z,20.33
2018-09-15T21:12:08.496Z,20.11
2018-09-15T21:22:11.630Z,20.05
2018-09-15T21:32:14.738Z,20.07
2018-09-15T21:42:17.704Z,19.98
2018-09-15T21:52:20.804Z,19.77
2018-09-15T22:02:23.895Z,19.73
2018-09-15T22:12:26.964Z,21.00
2018-09-15T22:22:29.388Z,21.38
2018-09-15T22:32:31.660Z,21.61
2018-09-15T22:42:33.971Z,21.69
2018-09-15T22:52:36.499Z,21.72
2018-09-15T23:02:38.816Z,21.72
2018-09-15T23:12:41.196Z,21.80
2018-09-15T23:22:43.744Z,21.81
2018-09-15T23:32:46.334Z,21.73
2018-09-15T23:42:49.035Z,21.85
2018-09-15T23:52:51.577Z,21.80
